Time;durP1;ratioP1;P1;durP2;ratioP2;P2;SDS_P1;SDS_P2;PMS_P1;PMS_P2;Temp;Humidity;BMP_temperature;BMP_pressure;BME280_temperature;BME280_humidity;BME280_pressure;Samples;Min_cycle;Max_cycle;Signal;HPM_P1;HPM_P2
2021/04/10 00:00:30;;;;;;;7.68;4.18;;;;;;;6.78;81.75;95710.13;1024018;29;20481;-49
2021/04/10 00:01:03;;;;;;;8.68;4.20;;;;;;;6.80;81.81;95710.88;1019986;29;20032;-51
2021/04/10 00:01:35;;;;;;;8.02;3.92;;;;;;;6.76;81.73;95703.34;1012163;29;20589;-50
2021/04/10 00:02:07;;;;;;;6.07;3.80;;;;;;;6.71;80.48;95705.38;1012133;29;20304;-49
2021/04/10 00:02:39;;;;;;;8.32;3.95;;;;;;;6.74;81.01;95710.44;1019905;29;20271;-49
2021/04/10 00:03:10;;;;;;;7.43;3.85;;;;;;;6.74;81.06;95713.03;1016022;29;20793;-50
2021/04/10 00:03:40;;;;;;;11.18;4.43;;;;;;;6.71;80.93;95708.81;1019690;29;20264;-51
2021/04/10 00:04:11;;;;;;;10.18;4.57;;;;;;;6.65;82.11;95710.97;1023909;29;20406;-48
2021/04/10 00:04:42;;;;;;;7.85;4.05;;;;;;;6.64;81.87;95709.28;1016080;29;20024;-50
2021/04/10 00:05:13;;;;;;;8.80;4.50;;;;;;;6.65;81.87;95713.56;1016048;29;20032;-49
2021/04/10 00:05:43;;;;;;;7.22;4.15;;;;;;;6.61;82.37;95711.13;1015965;29;20051;-51
2021/04/10 00:06:14;;;;;;;6.53;3.90;;;;;;;6.63;82.51;95712.81;1015915;29;20585;-49
2021/04/10 00:06:45;;;;;;;8.98;4.20;;;;;;;6.57;82.08;95712.25;1019910;29;20122;-49
2021/04/10 00:07:15;;;;;;;6.80;4.03;;;;;;;6.42;82.57;95693.16;1016053;29;20500;-49
2021/04/10 00:07:46;;;;;;;7.20;4.15;;;;;;;6.54;82.74;95706.38;1015848;29;20096;-50
2021/04/10 00:08:17;;;;;;;7.75;4.18;;;;;;;6.49;82.85;95705.78;1012144;29;20028;-49
2021/04/10 00:08:48;;;;;;;7.75;4.15;;;;;;;6.48;82.49;95712.78;1012080;29;20095;-51
2021/04/10 00:09:19;;;;;;;7.38;3.97;;;;;;;6.45;82.11;95710.34;1012131;29;20092;-49
2021/04/10 00:09:50;;;;;;;7.68;4.20;;;;;;;6.43;82.19;95707.81;1012328;29;20351;-50
2021/04/10 00:10:22;;;;;;;7.43;4.22;;;;;;;6.37;83.73;95702.97;1012384;29;20024;-50
2021/04/10 00:10:53;;;;;;;7.03;4.05;;;;;;;6.37;82.68;95708.19;1008183;29;20277;-49
2021/04/10 00:11:24;;;;;;;7.22;4.40;;;;;;;6.36;82.52;95711.72;1016015;29;20780;-51
2021/04/10 00:11:54;;;;;;;7.15;4.72;;;;;;;6.35;83.15;95704.00;1016008;29;20063;-50
2021/04/10 00:12:25;;;;;;;10.18;4.40;;;;;;;6.35;83.84;95704.84;1015865;29;20024;-50
2021/04/10 00:12:58;;;;;;;8.35;3.92;;;;;;;6.34;83.99;95705.75;1019890;29;20433;-51
2021/04/10 00:13:28;;;;;;;7.88;4.18;;;;;;;6.30;83.67;95704.25;1012052;29;20027;-50
2021/04/10 00:13:59;;;;;;;6.80;3.78;;;;;;;6.29;83.60;95701.72;1019760;29;20362;-51
2021/04/10 00:14:30;;;;;;;9.65;4.25;;;;;;;6.26;83.83;95701.94;1015823;29;20027;-50
2021/04/10 00:15:01;;;;;;;9.68;4.70;;;;;;;6.16;84.55;95694.66;1012061;29;20064;-48
2021/04/10 00:15:32;;;;;;;9.13;4.05;;;;;;;6.19;84.43;95701.44;1015995;29;20028;-49
2021/04/10 00:16:04;;;;;;;8.25;4.18;;;;;;;6.19;84.60;95704.88;1012101;29;20276;-51
2021/04/10 00:16:35;;;;;;;8.35;4.07;;;;;;;6.18;85.02;95702.38;1008506;29;20028;-50
2021/04/10 00:17:06;;;;;;;8.52;4.07;;;;;;;6.18;84.88;95700.59;1012131;29;20264;-49
2021/04/10 00:17:37;;;;;;;13.45;5.28;;;;;;;6.16;84.51;95697.25;1011987;29;20891;-50
2021/04/10 00:18:08;;;;;;;6.60;3.85;;;;;;;6.12;85.20;95697.50;1019942;29;20051;-49
2021/04/10 00:18:38;;;;;;;6.95;4.05;;;;;;;6.11;84.71;95704.47;1019718;29;20027;-51
2021/04/10 00:19:09;;;;;;;8.98;4.35;;;;;;;6.05;85.02;95702.22;1015972;29;20028;-49
2021/04/10 00:19:40;;;;;;;8.77;4.65;;;;;;;6.08;84.44;95703.78;1023808;29;20024;-52
2021/04/10 00:20:13;;;;;;;7.43;3.95;;;;;;;6.07;84.27;95708.16;1019881;29;20035;-50
2021/04/10 00:20:44;;;;;;;6.78;3.80;;;;;;;6.07;83.87;95702.97;1019724;29;20024;-51
2021/04/10 00:21:15;;;;;;;6.30;3.85;;;;;;;6.06;84.55;95700.44;1027863;28;20254;-50
2021/04/10 00:21:45;;;;;;;8.15;3.80;;;;;;;5.96;85.03;95700.97;1019854;29;20068;-49
2021/04/10 00:22:16;;;;;;;8.60;4.13;;;;;;;5.98;84.95;95699.09;1012040;29;20021;-51
2021/04/10 00:22:47;;;;;;;6.70;4.00;;;;;;;5.99;85.05;95697.38;1023769;29;20094;-51
2021/04/10 00:23:17;;;;;;;7.53;3.33;;;;;;;5.98;84.69;95704.31;1015929;29;20028;-50
2021/04/10 00:23:48;;;;;;;6.53;3.88;;;;;;;5.96;84.90;95700.13;1015744;29;20024;-51
2021/04/10 00:24:19;;;;;;;9.00;3.95;;;;;;;5.93;84.83;95695.91;1015764;29;20115;-49
2021/04/10 00:24:49;;;;;;;6.00;3.63;;;;;;;5.90;84.84;95696.09;1015938;29;20028;-48
2021/04/10 00:25:20;;;;;;;7.15;4.05;;;;;;;5.93;84.73;95700.25;1015996;29;20031;-52
2021/04/10 00:25:51;;;;;;;7.53;3.92;;;;;;;5.91;84.97;95696.91;1019950;29;20027;-48
2021/04/10 00:26:22;;;;;;;8.75;3.95;;;;;;;5.92;85.25;95702.03;1012041;29;20152;-50
2021/04/10 00:26:53;;;;;;;8.93;4.05;;;;;;;5.89;85.62;95696.16;1008049;29;20028;-49
2021/04/10 00:27:23;;;;;;;7.15;3.45;;;;;;;5.88;85.39;95690.13;1012001;29;20806;-50
2021/04/10 00:27:54;;;;;;;7.97;4.03;;;;;;;5.88;85.88;95694.50;1012042;29;20012;-51
2021/04/10 00:28:25;;;;;;;8.30;4.40;;;;;;;5.87;85.56;95698.00;1012064;29;20073;-50
2021/04/10 00:28:55;;;;;;;6.78;4.25;;;;;;;5.84;85.84;95693.84;1011992;29;20128;-50
2021/04/10 00:29:26;;;;;;;8.90;4.07;;;;;;;5.77;86.32;95700.28;1016005;29;20012;-50
2021/04/10 00:29:57;;;;;;;6.65;3.75;;;;;;;5.80;86.65;95700.09;1019864;29;20015;-50
2021/04/10 00:30:28;;;;;;;7.47;3.70;;;;;;;5.77;86.67;95698.53;1015998;29;20409;-50
2021/04/10 00:31:06;;;;;;;9.02;4.72;;;;;;;5.75;86.29;95691.75;1011868;29;20028;-50
2021/04/10 00:31:37;;;;;;;8.10;4.20;;;;;;;5.71;86.90;95693.66;1015993;29;20020;-51
2021/04/10 00:32:07;;;;;;;10.68;4.38;;;;;;;5.67;86.93;95697.38;1019803;29;20247;-49
2021/04/10 00:32:38;;;;;;;6.72;4.05;;;;;;;5.65;86.90;95694.84;1011994;29;20134;-50
2021/04/10 00:33:09;;;;;;;7.30;3.78;;;;;;;5.59;86.89;95687.41;1019828;29;20439;-50
2021/04/10 00:33:40;;;;;;;8.45;3.95;;;;;;;5.60;87.13;95696.84;1023645;29;20015;-50
2021/04/10 00:34:11;;;;;;;7.32;4.30;;;;;;;5.60;87.67;95690.81;1019756;29;20020;-50
2021/04/10 00:34:42;;;;;;;6.72;3.97;;;;;;;5.62;86.72;95694.16;1008310;29;20293;-48
2021/04/10 00:35:12;;;;;;;8.27;4.30;;;;;;;5.58;86.60;95685.69;1015885;29;20108;-50
2021/04/10 00:35:43;;;;;;;8.27;4.10;;;;;;;5.60;86.82;95686.44;1012039;29;20017;-50
2021/04/10 00:36:14;;;;;;;5.97;3.88;;;;;;;5.61;86.97;95693.34;1004356;29;20074;-50
2021/04/10 00:36:45;;;;;;;12.13;3.97;;;;;;;5.56;87.40;95691.91;1012034;29;20436;-50
2021/04/10 00:37:15;;;;;;;6.13;4.20;;;;;;;5.52;87.38;95686.03;1011880;29;20021;-49
2021/04/10 00:37:46;;;;;;;9.07;3.95;;;;;;;5.52;88.33;95690.38;1019888;29;20438;-50
2021/04/10 00:38:17;;;;;;;6.97;3.55;;;;;;;5.42;88.00;95677.06;1011972;29;20024;-51
2021/04/10 00:38:48;;;;;;;9.63;4.63;;;;;;;5.45;88.69;95688.13;1019880;29;20019;-50
2021/04/10 00:39:18;;;;;;;9.57;4.13;;;;;;;5.48;88.65;95684.53;1019613;29;20024;-50
2021/04/10 00:39:49;;;;;;;6.40;3.70;;;;;;;5.46;87.96;95683.75;1015889;29;20020;-51
2021/04/10 00:40:20;;;;;;;8.63;4.43;;;;;;;5.47;87.62;95693.25;1019850;29;20023;-50
2021/04/10 00:40:50;;;;;;;9.38;4.25;;;;;;;5.43;88.43;95686.53;1015914;29;20537;-50
2021/04/10 00:41:21;;;;;;;7.53;3.58;;;;;;;5.43;88.92;95686.53;1011876;29;20107;-51
2021/04/10 00:41:52;;;;;;;6.13;3.58;;;;;;;5.41;88.52;95688.38;1015875;29;20081;-50
2021/04/10 00:42:23;;;;;;;8.27;3.60;;;;;;;5.41;88.69;95684.03;1015825;29;20101;-49
2021/04/10 00:42:53;;;;;;;8.93;4.28;;;;;;;5.42;89.03;95692.66;1011975;29;20036;-50
2021/04/10 00:43:25;;;;;;;9.00;3.88;;;;;;;5.38;89.14;95688.53;1015676;29;20453;-50
2021/04/10 00:43:55;;;;;;;7.72;3.78;;;;;;;5.37;88.77;95685.13;1011824;29;20484;-49
2021/04/10 00:44:26;;;;;;;6.93;3.65;;;;;;;5.38;88.86;95686.78;1015794;29;20256;-50
2021/04/10 00:44:57;;;;;;;10.20;3.30;;;;;;;5.38;89.44;95685.94;1004281;29;20021;-49
2021/04/10 00:45:27;;;;;;;8.30;3.58;;;;;;;5.38;89.02;95683.34;1015896;29;20410;-51
2021/04/10 00:45:58;;;;;;;5.90;3.38;;;;;;;5.32;89.52;95688.88;1008138;29;20044;-48
2021/04/10 00:46:29;;;;;;;8.52;3.90;;;;;;;5.26;89.73;95685.69;1015931;29;20024;-50
2021/04/10 00:46:59;;;;;;;7.68;4.13;;;;;;;5.29;89.36;95683.84;1008145;29;20021;-48
2021/04/10 00:47:30;;;;;;;6.70;3.80;;;;;;;5.29;89.44;95683.84;1011965;29;20020;-49
2021/04/10 00:48:01;;;;;;;5.93;3.85;;;;;;;5.27;88.54;95691.72;1011924;29;20025;-49
2021/04/10 00:48:32;;;;;;;7.50;3.85;;;;;;;5.23;88.61;95691.03;1015883;29;20517;-50
2021/04/10 00:49:03;;;;;;;7.15;4.25;;;;;;;5.23;89.42;95685.84;1019776;29;20118;-48
2021/04/10 00:49:33;;;;;;;10.02;4.28;;;;;;;5.22;89.33;95693.72;1008100;29;20257;-51
2021/04/10 00:50:05;;;;;;;5.50;3.40;;;;;;;5.24;89.11;95691.91;1015782;29;20430;-50
2021/04/10 00:50:36;;;;;;;6.90;3.53;;;;;;;5.19;89.58;95684.31;1015794;29;20495;-50
2021/04/10 00:51:07;;;;;;;8.98;3.60;;;;;;;5.21;89.82;95689.44;1015711;29;20268;-50
2021/04/10 00:51:37;;;;;;;7.07;4.45;;;;;;;5.21;89.29;95694.66;1011908;29;20048;-49
2021/04/10 00:52:10;;;;;;;7.13;3.72;;;;;;;5.20;89.24;95695.53;1008054;29;20671;-50
2021/04/10 00:52:42;;;;;;;9.77;3.95;;;;;;;5.19;89.52;95692.13;1012101;29;20021;-51
2021/04/10 00:53:14;;;;;;;7.28;3.97;;;;;;;5.15;88.92;95688.00;1015736;29;20659;-50
2021/04/10 00:53:45;;;;;;;8.32;4.05;;;;;;;5.16;89.68;95697.50;1015616;29;20264;-49
2021/04/10 00:54:16;;;;;;;7.63;3.60;;;;;;;5.15;89.71;95690.59;1011894;29;20305;-50
2021/04/10 00:54:47;;;;;;;7.70;4.13;;;;;;;5.16;89.76;95694.91;1019785;29;20030;-50
2021/04/10 00:55:18;;;;;;;6.28;3.42;;;;;;;5.18;89.80;95697.38;1011892;29;20021;-50
2021/04/10 00:55:49;;;;;;;6.57;3.80;;;;;;;5.15;89.45;95693.22;1011840;29;20300;-50
2021/04/10 00:56:20;;;;;;;6.68;3.72;;;;;;;5.14;89.46;95699.31;1015836;29;20031;-51
2021/04/10 00:56:50;;;;;;;9.68;3.90;;;;;;;5.10;89.87;95696.97;1011969;29;20020;-51
2021/04/10 00:57:21;;;;;;;10.02;3.88;;;;;;;5.07;90.14;95693.63;1011918;29;20024;-50
2021/04/10 00:57:52;;;;;;;7.80;3.58;;;;;;;5.12;90.30;95692.53;1011939;29;20436;-51
2021/04/10 00:58:22;;;;;;;7.93;3.75;;;;;;;5.11;89.70;95693.47;1011908;29;20107;-50
2021/04/10 00:58:53;;;;;;;11.15;4.30;;;;;;;5.10;89.46;95695.19;1012112;29;20554;-50
2021/04/10 00:59:24;;;;;;;6.88;3.80;;;;;;;5.11;89.81;95688.28;1019829;29;20427;-51
2021/04/10 00:59:55;;;;;;;5.95;3.45;;;;;;;5.11;89.32;95691.69;1019751;29;20581;-49
2021/04/10 01:00:26;;;;;;;8.40;4.75;;;;;;;5.11;89.96;95688.28;1019679;29;20422;-51
2021/04/10 01:00:57;;;;;;;8.35;4.05;;;;;;;5.07;90.03;95691.03;1023641;29;20023;-51
2021/04/10 01:01:27;;;;;;;7.80;3.92;;;;;;;5.07;89.24;95695.38;1015860;29;20024;-50
2021/04/10 01:01:58;;;;;;;7.28;3.83;;;;;;;5.05;89.61;95690.25;1015844;29;20111;-51
2021/04/10 01:02:29;;;;;;;8.10;4.13;;;;;;;5.06;89.64;95686.72;1019627;29;20023;-48
2021/04/10 01:03:00;;;;;;;8.43;3.85;;;;;;;5.07;89.19;95685.81;1019777;29;20255;-52
2021/04/10 01:03:31;;;;;;;9.13;3.83;;;;;;;5.02;89.95;95681.78;1015709;29;20463;-50
2021/04/10 01:04:02;;;;;;;8.38;3.75;;;;;;;5.02;89.96;95687.00;1015724;29;20068;-50
2021/04/10 01:04:34;;;;;;;8.30;4.00;;;;;;;5.02;89.73;95681.78;1015687;29;20271;-49
2021/04/10 01:05:06;;;;;;;8.88;3.97;;;;;;;4.96;89.99;95684.72;1023686;29;20290;-48
2021/04/10 01:05:37;;;;;;;9.48;5.00;;;;;;;4.93;90.30;95682.28;1015815;29;20344;-51
2021/04/10 01:06:08;;;;;;;6.53;3.80;;;;;;;4.91;90.89;95684.94;1015817;29;20331;-48
2021/04/10 01:06:39;;;;;;;6.80;3.85;;;;;;;4.93;90.41;95685.69;1019697;29;20083;-50
2021/04/10 01:07:10;;;;;;;8.68;3.88;;;;;;;4.95;90.54;95680.44;1015767;29;20865;-50
2021/04/10 01:07:41;;;;;;;8.48;4.20;;;;;;;4.94;90.69;95684.78;1015746;29;20024;-48
2021/04/10 01:08:11;;;;;;;8.43;3.88;;;;;;;4.96;89.93;95682.13;1019714;29;20271;-50
2021/04/10 01:08:42;;;;;;;7.93;3.90;;;;;;;4.96;90.94;95682.13;1019608;29;20551;-51
2021/04/10 01:09:13;;;;;;;10.48;3.80;;;;;;;4.94;90.29;95690.00;1012047;29;20021;-50
2021/04/10 01:09:47;;;;;;;5.65;3.40;;;;;;;4.89;90.87;95681.59;1011931;29;20616;-49
2021/04/10 01:10:18;;;;;;;7.93;3.88;;;;;;;4.90;90.62;95691.06;1011990;29;20443;-49
2021/04/10 01:10:49;;;;;;;8.93;3.78;;;;;;;4.86;91.41;95686.94;1007962;29;20306;-49
2021/04/10 01:11:29;;;;;;;7.63;3.88;;;;;;;4.87;91.44;95692.06;1015826;29;20046;-50
2021/04/10 01:12:22;;;;;;;7.15;4.05;;;;;;;4.84;91.21;95687.03;1011894;29;20448;-49
2021/04/10 01:13:03;;;;;;;9.35;3.60;;;;;;;4.83;91.66;95690.53;1008538;29;20258;-50
2021/04/10 01:13:36;;;;;;;8.85;4.00;;;;;;;4.82;91.19;95688.88;1012056;29;20337;-51
2021/04/10 01:14:16;;;;;;;19.75;4.05;;;;;;;4.81;91.02;95691.56;1015793;29;20296;-48
2021/04/10 01:15:02;;;;;;;8.40;3.80;;;;;;;4.77;91.73;95688.28;1011871;29;20899;-50
2021/04/10 01:15:44;;;;;;;7.85;3.55;;;;;;;4.78;91.48;95695.13;1011759;29;20044;-50
2021/04/10 01:16:25;;;;;;;9.20;4.00;;;;;;;4.79;91.42;95693.38;1007969;29;20313;-51
2021/04/10 01:16:58;;;;;;;7.70;3.85;;;;;;;4.78;91.73;95694.28;1011794;29;20308;-49
2021/04/10 01:17:32;;;;;;;10.98;3.85;;;;;;;4.77;90.98;95690.88;1015715;29;20284;-51
2021/04/10 01:18:06;;;;;;;8.20;3.78;;;;;;;4.79;91.14;95696.81;1011925;29;20755;-51
2021/04/10 01:18:48;;;;;;;6.72;3.67;;;;;;;4.76;91.90;95699.56;1008029;29;20258;-51
2021/04/10 01:19:27;;;;;;;7.13;3.60;;;;;;;4.75;91.16;95681.47;1015618;29;20793;-50
2021/04/10 01:20:12;;;;;;;7.93;3.83;;;;;;;4.76;91.27;95689.19;1015761;29;20291;-50
2021/04/10 01:21:02;;;;;;;9.00;4.15;;;;;;;4.72;91.31;95684.22;1015793;29;20331;-51
2021/04/10 01:21:44;;;;;;;7.78;4.00;;;;;;;4.74;91.78;95685.81;1004629;29;20265;-50
2021/04/10 01:22:35;;;;;;;6.93;3.45;;;;;;;4.69;91.81;95685.22;1012012;29;20102;-50
2021/04/10 01:23:24;;;;;;;7.80;4.20;;;;;;;4.69;91.63;95680.03;1015894;29;20263;-50
2021/04/10 01:24:15;;;;;;;6.10;3.63;;;;;;;4.66;91.94;95683.63;1019501;29;20032;-49
2021/04/10 01:24:57;;;;;;;7.55;3.47;;;;;;;4.68;92.20;95681.78;1018223;29;20024;-50
2021/04/10 01:25:34;;;;;;;5.93;3.53;;;;;;;4.67;92.25;95681.84;1015756;29;20024;-50
2021/04/10 01:26:22;;;;;;;6.75;3.60;;;;;;;4.61;92.80;95682.19;1015718;29;20268;-50
2021/04/10 01:26:58;;;;;;;10.93;4.15;;;;;;;4.61;92.82;95685.59;1011883;29;20888;-50
2021/04/10 01:27:43;;;;;;;7.97;3.40;;;;;;;4.62;92.09;95684.69;1011775;29;20288;-50
2021/04/10 01:28:23;;;;;;;11.40;4.85;;;;;;;4.60;92.97;95688.31;1011883;29;20289;-49
2021/04/10 01:28:56;;;;;;;;;;;;;;;4.60;92.42;95683.94;1020033;29;20260;-50
2021/04/10 01:29:27;;;;;;;7.20;3.50;;;;;;;4.56;92.45;95682.44;1019207;29;20413;-50
2021/04/10 01:30:09;;;;;;;7.25;4.10;;;;;;;4.53;92.85;95685.16;1015702;29;20268;-51
2021/04/10 01:30:40;;;;;;;6.65;3.63;;;;;;;4.51;93.61;95693.97;1011798;29;20024;-50
2021/04/10 01:31:10;;;;;;;9.52;3.75;;;;;;;4.46;93.47;95688.97;1019563;29;20255;-50
2021/04/10 01:31:44;;;;;;;7.55;3.67;;;;;;;4.48;93.57;95689.75;1019589;29;20019;-52
2021/04/10 01:32:15;;;;;;;6.25;3.42;;;;;;;4.47;93.48;95695.88;1011805;29;20084;-49
2021/04/10 01:32:58;;;;;;;6.03;3.50;;;;;;;4.47;93.64;95691.50;1015773;29;20308;-49
2021/04/10 01:33:30;;;;;;;8.32;3.45;;;;;;;4.45;93.34;95698.53;1021715;29;20020;-50
2021/04/10 01:34:02;;;;;;;6.43;3.60;;;;;;;4.44;93.60;95690.81;1015766;29;20347;-50
2021/04/10 01:34:37;;;;;;;8.00;3.42;;;;;;;4.43;93.52;95699.50;1007975;29;20258;-50
2021/04/10 01:35:10;;;;;;;7.13;3.70;;;;;;;4.47;93.91;95698.47;1011751;29;20293;-50
2021/04/10 01:35:44;;;;;;;7.95;3.72;;;;;;;4.43;93.89;95694.31;1023482;29;20259;-50
2021/04/10 01:36:18;;;;;;;7.25;3.90;;;;;;;4.45;94.19;95693.34;1023630;29;20255;-49
2021/04/10 01:36:49;;;;;;;6.88;3.80;;;;;;;4.41;94.14;95697.00;1019572;29;20256;-51
2021/04/10 01:37:25;;;;;;;7.00;4.18;;;;;;;4.41;94.33;95693.56;1018683;29;20255;-51
2021/04/10 01:37:58;;;;;;;10.23;3.85;;;;;;;4.39;94.05;95691.06;1019572;29;20015;-52
2021/04/10 01:38:29;;;;;;;5.22;3.53;;;;;;;4.36;94.43;95690.38;1019655;29;20356;-50
2021/04/10 01:39:01;;;;;;;6.82;3.35;;;;;;;4.37;94.82;95697.22;1023532;29;20259;-50
2021/04/10 01:39:32;;;;;;;7.82;4.03;;;;;;;4.38;94.91;95691.13;1015635;29;20249;-50
2021/04/10 01:40:04;;;;;;;7.03;3.80;;;;;;;4.38;94.71;95691.97;1011803;29;20763;-49
2021/04/10 01:40:35;;;;;;;8.60;3.95;;;;;;;4.38;94.58;95689.38;1011806;29;20545;-50
2021/04/10 01:41:05;;;;;;;13.02;3.83;;;;;;;4.36;95.34;95691.22;1011714;29;20269;-51
2021/04/10 01:41:37;;;;;;;6.70;4.07;;;;;;;4.37;94.93;95687.69;1015645;29;20268;-50
2021/04/10 01:42:10;;;;;;;6.65;3.78;;;;;;;4.37;94.61;95694.63;1015789;29;20024;-51
2021/04/10 01:42:40;;;;;;;7.40;3.90;;;;;;;4.37;94.60;95692.03;1015618;29;20351;-51
2021/04/10 01:43:11;;;;;;;16.20;4.30;;;;;;;4.31;94.88;95692.34;1019120;29;20267;-49
2021/04/10 01:43:42;;;;;;;6.68;3.85;;;;;;;4.31;94.76;95688.00;1011579;29;20104;-51
2021/04/10 01:44:14;;;;;;;10.50;3.65;;;;;;;4.35;95.22;95686.91;1011712;29;20035;-50
2021/04/10 01:44:44;;;;;;;6.85;3.60;;;;;;;4.25;94.71;95673.56;1011843;29;20023;-48
2021/04/10 01:45:16;;;;;;;9.65;3.75;;;;;;;4.35;95.42;95694.69;1007960;29;20624;-50
2021/04/10 01:45:47;;;;;;;7.18;4.20;;;;;;;4.38;94.97;95691.97;1011709;29;20458;-50
2021/04/10 01:46:19;;;;;;;6.63;3.92;;;;;;;4.36;94.94;95682.59;1007941;29;20357;-50
2021/04/10 01:46:50;;;;;;;8.82;4.65;;;;;;;4.36;94.93;95685.19;1007896;29;20261;-49
2021/04/10 01:47:22;;;;;;;6.68;3.65;;;;;;;4.40;95.00;95681.53;1011864;29;20264;-48
2021/04/10 01:47:55;;;;;;;6.50;3.70;;;;;;;4.40;95.16;95687.53;1015549;29;20032;-50
2021/04/10 01:48:26;;;;;;;7.65;4.43;;;;;;;4.45;94.09;95684.72;1015587;29;20758;-49
2021/04/10 01:48:57;;;;;;;8.85;3.83;;;;;;;4.44;94.60;95685.63;1015660;29;20257;-50
2021/04/10 01:49:28;;;;;;;8.52;3.63;;;;;;;4.49;93.91;95688.84;1007917;29;20402;-50
2021/04/10 01:50:00;;;;;;;10.65;4.90;;;;;;;4.49;94.29;95688.84;1011757;29;20094;-50
2021/04/10 01:50:31;;;;;;;7.32;3.90;;;;;;;4.45;94.12;95682.97;1011781;29;20727;-51
2021/04/10 01:51:02;;;;;;;8.35;4.57;;;;;;;4.47;94.50;95680.28;1015635;29;20260;-50
2021/04/10 01:51:34;;;;;;;6.45;3.80;;;;;;;4.50;94.38;95682.72;1011752;29;20723;-50
2021/04/10 01:52:05;;;;;;;7.93;4.30;;;;;;;4.53;93.88;95685.16;1011746;29;20028;-52
2021/04/10 01:52:36;;;;;;;6.72;3.90;;;;;;;4.47;94.37;95683.72;1015511;29;20275;-50
2021/04/10 01:53:07;;;;;;;6.97;3.75;;;;;;;4.51;94.69;95687.00;1011775;29;20272;-52
2021/04/10 01:53:38;;;;;;;7.43;3.45;;;;;;;4.51;94.55;95691.38;1007734;29;20391;-49
2021/04/10 01:54:09;;;;;;;11.63;4.13;;;;;;;4.47;94.88;95683.72;1011625;29;20356;-48
2021/04/10 01:54:40;;;;;;;7.53;4.00;;;;;;;4.51;94.47;95686.19;1015688;29;20028;-50
2021/04/10 01:55:11;;;;;;;7.55;3.85;;;;;;;4.53;94.81;95686.94;1011839;29;20277;-50
2021/04/10 01:55:42;;;;;;;8.45;3.78;;;;;;;4.52;94.29;95683.47;1015776;29;20032;-49
2021/04/10 01:56:13;;;;;;;10.68;3.83;;;;;;;4.46;94.16;95684.63;1015627;29;20642;-50
2021/04/10 01:56:45;;;;;;;8.85;4.18;;;;;;;4.47;94.28;95690.69;1007855;29;20107;-49
2021/04/10 01:57:15;;;;;;;6.43;3.85;;;;;;;4.54;94.25;95691.19;1019649;29;20262;-49
2021/04/10 01:57:47;;;;;;;8.15;4.25;;;;;;;4.51;94.40;95692.19;1015643;29;20700;-52
2021/04/10 01:58:18;;;;;;;7.50;3.80;;;;;;;4.54;94.66;95679.03;1019577;29;20032;-50
2021/04/10 01:58:49;;;;;;;10.02;3.78;;;;;;;4.58;94.88;95690.09;1023447;29;20263;-49
2021/04/10 01:59:20;;;;;;;8.43;4.05;;;;;;;4.59;95.37;95692.63;1023518;29;20082;-49
2021/04/10 01:59:51;;;;;;;7.70;3.83;;;;;;;4.64;94.55;95687.22;1011818;29;20118;-51
2021/04/10 02:00:24;;;;;;;6.65;3.80;;;;;;;4.59;94.35;95686.63;1015665;29;20027;-51
2021/04/10 02:00:55;;;;;;;8.80;3.90;;;;;;;4.58;94.52;95688.38;1015656;29;20800;-51
2021/04/10 02:01:25;;;;;;;6.88;4.03;;;;;;;4.57;94.98;95686.69;1019646;29;20258;-49
2021/04/10 02:01:56;;;;;;;11.50;3.70;;;;;;;4.55;95.33;95685.09;1019591;29;20421;-50
2021/04/10 02:02:27;;;;;;;6.93;3.95;;;;;;;4.55;94.62;95691.13;1015619;29;20083;-47
2021/04/10 02:02:58;;;;;;;10.20;4.35;;;;;;;4.59;93.63;95695.22;1015932;29;20031;-50
2021/04/10 02:03:28;;;;;;;6.40;3.90;;;;;;;4.44;94.88;95673.50;1012564;29;20113;-53
2021/04/10 02:03:59;;;;;;;9.68;3.60;;;;;;;4.57;94.78;95694.47;1008595;29;20080;-50
2021/04/10 02:04:32;;;;;;;7.43;4.00;;;;;;;4.59;94.58;95692.63;1016366;29;20032;-49
2021/04/10 02:05:05;;;;;;;6.78;3.90;;;;;;;4.56;95.05;95694.53;1020418;29;20114;-50
2021/04/10 02:05:36;;;;;;;9.20;4.07;;;;;;;4.55;95.30;95698.06;1012626;29;20257;-50
2021/04/10 02:06:10;;;;;;;7.88;3.33;;;;;;;4.61;94.25;95693.38;1016463;29;20271;-51
2021/04/10 02:06:40;;;;;;;7.38;3.47;;;;;;;4.62;94.20;95692.50;1016425;29;20501;-50
2021/04/10 02:07:11;;;;;;;8.02;3.70;;;;;;;4.61;93.78;95695.16;1008666;29;20321;-50
2021/04/10 02:07:46;;;;;;;15.73;4.80;;;;;;;4.64;93.97;95693.25;1012504;29;20028;-49
2021/04/10 02:08:17;;;;;;;11.63;3.80;;;;;;;4.65;93.55;95694.94;1020391;29;20012;-51
2021/04/10 02:08:47;;;;;;;8.57;4.05;;;;;;;4.68;93.48;95694.75;1016411;29;20611;-50
2021/04/10 02:09:18;;;;;;;10.25;3.70;;;;;;;4.61;93.87;95674.41;1020722;29;20043;-50
2021/04/10 02:09:49;;;;;;;8.65;3.92;;;;;;;4.76;93.57;95698.72;1016401;29;20135;-52
2021/04/10 02:10:24;;;;;;;7.28;3.45;;;;;;;4.72;93.34;95687.66;1016519;29;20016;-50
2021/04/10 02:10:54;;;;;;;6.63;3.78;;;;;;;4.68;93.66;95691.34;1020277;29;20687;-49
2021/04/10 02:11:26;;;;;;;8.63;3.72;;;;;;;4.66;93.43;95686.22;1016397;29;20295;-50
2021/04/10 02:11:57;;;;;;;9.70;3.97;;;;;;;4.71;93.73;95695.53;1020452;29;20016;-51
2021/04/10 02:12:28;;;;;;;7.25;3.50;;;;;;;4.68;94.35;95693.94;1012559;29;20754;-49
2021/04/10 02:12:58;;;;;;;9.20;3.88;;;;;;;4.61;96.15;95690.78;1012467;29;20024;-50
2021/04/10 02:13:30;;;;;;;6.30;3.70;;;;;;;4.60;95.86;95690.91;1012377;29;20146;-48
2021/04/10 02:14:02;;;;;;;8.30;3.88;;;;;;;4.63;96.10;95695.91;1012477;29;20445;-50
2021/04/10 02:14:33;;;;;;;10.52;4.00;;;;;;;4.67;94.89;95694.84;1016403;29;20248;-49
2021/04/10 02:15:05;;;;;;;7.15;3.83;;;;;;;4.72;94.61;95694.63;1008477;29;20265;-49
2021/04/10 02:15:36;;;;;;;7.03;3.90;;;;;;;4.79;94.40;95696.81;1012562;29;20017;-51
2021/04/10 02:16:07;;;;;;;8.20;4.03;;;;;;;4.74;94.77;95692.78;1024259;29;20251;-50
2021/04/10 02:16:39;;;;;;;6.47;3.70;;;;;;;4.81;94.57;95702.75;1024381;29;20115;-51
2021/04/10 02:17:09;;;;;;;9.68;3.95;;;;;;;4.75;94.05;95695.31;1024333;29;20757;-50
2021/04/10 02:17:40;;;;;;;6.07;3.80;;;;;;;4.77;94.24;95698.66;1016451;29;20276;-49
2021/04/10 02:18:11;;;;;;;7.80;3.95;;;;;;;4.74;94.78;95703.16;1020359;29;20018;-49
2021/04/10 02:18:42;;;;;;;9.13;4.68;;;;;;;4.66;95.20;95690.56;1016450;29;20024;-51
2021/04/10 02:19:13;;;;;;;8.07;3.58;;;;;;;4.72;95.11;95694.63;1008519;29;20024;-49
2021/04/10 02:19:45;;;;;;;5.60;3.35;;;;;;;4.77;95.00;95700.41;1012531;29;20023;-50
2021/04/10 02:20:16;;;;;;;6.28;3.65;;;;;;;4.77;95.03;95698.66;1012488;29;20020;-51
2021/04/10 02:20:47;;;;;;;8.27;3.85;;;;;;;4.84;93.99;95689.63;1016412;29;20254;-49
2021/04/10 02:21:25;;;;;;;8.75;3.95;;;;;;;4.83;94.18;95692.31;1020247;29;20052;-52
2021/04/10 02:21:57;;;;;;;6.22;3.45;;;;;;;4.84;93.99;95693.97;1020264;29;20247;-51
2021/04/10 02:22:33;;;;;;;6.32;3.65;;;;;;;4.79;94.38;95690.78;1020298;29;20689;-49
2021/04/10 02:23:04;;;;;;;7.32;3.40;;;;;;;4.74;94.65;95691.00;1012434;29;20281;-51
2021/04/10 02:23:39;;;;;;;6.53;3.42;;;;;;;4.77;94.46;95690.88;1012300;29;20288;-51
2021/04/10 02:24:12;;;;;;;6.75;3.80;;;;;;;4.83;93.73;95687.94;1016302;29;20790;-50
2021/04/10 02:24:43;;;;;;;6.68;3.58;;;;;;;4.79;95.14;95695.97;1012546;29;20328;-50
2021/04/10 02:25:14;;;;;;;7.18;4.10;;;;;;;4.79;94.35;95689.03;1016470;29;20256;-49
2021/04/10 02:25:45;;;;;;;7.47;3.10;;;;;;;4.85;93.94;95696.50;1020110;29;20244;-50
2021/04/10 02:26:16;;;;;;;7.63;3.40;;;;;;;4.79;93.66;95691.63;1012492;29;20084;-51
2021/04/10 02:26:46;;;;;;;6.97;3.35;;;;;;;4.89;93.23;95688.56;1016308;29;20524;-50
2021/04/10 02:27:17;;;;;;;6.97;3.70;;;;;;;4.91;92.47;95694.50;1012509;29;20021;-49
2021/04/10 02:27:48;;;;;;;6.38;3.20;;;;;;;4.95;92.86;95690.81;1012450;29;20417;-52
2021/04/10 02:28:19;;;;;;;7.85;3.22;;;;;;;4.91;93.19;95692.72;1012607;29;20523;-50
2021/04/10 02:28:49;;;;;;;5.93;3.30;;;;;;;4.90;93.38;95688.47;1016445;29;20035;-50
2021/04/10 02:29:20;;;;;;;6.85;3.55;;;;;;;4.85;93.00;95686.09;1020392;29;20047;-51
2021/04/10 02:29:51;;;;;;;10.88;3.58;;;;;;;4.84;93.51;95694.81;1016351;29;20027;-49
2021/04/10 02:30:22;;;;;;;7.05;3.20;;;;;;;4.86;93.98;95690.41;1020265;29;20020;-51
2021/04/10 02:30:54;;;;;;;4.82;2.75;;;;;;;4.91;93.68;95694.50;1012516;29;20506;-50
2021/04/10 02:31:44;;;;;;;7.60;3.17;;;;;;;4.96;93.03;95693.34;1012416;29;20268;-51
2021/04/10 02:32:19;;;;;;;6.88;3.70;;;;;;;5.03;92.88;95691.25;1016438;29;20260;-49
2021/04/10 02:33:07;;;;;;;8.65;3.38;;;;;;;5.02;92.79;95689.59;1016360;29;20024;-50
2021/04/10 02:33:40;;;;;;;6.15;3.30;;;;;;;4.95;93.27;95690.81;1016118;29;20826;-47
2021/04/10 02:34:13;;;;;;;6.25;3.40;;;;;;;4.98;93.11;95685.47;1016388;29;20268;-51
2021/04/10 02:34:50;;;;;;;5.65;3.05;;;;;;;4.98;93.12;95682.88;1008680;29;20688;-50